Time;durP1;ratioP1;P1;durP2;ratioP2;P2;SDS_P1;SDS_P2;PMS_P1;PMS_P2;Temp;Humidity;BMP_temperature;BMP_pressure;BME280_temperature;BME280_humidity;BME280_pressure;Samples;Min_cycle;Max_cycle;Signal;HPM_P1;HPM_P2
2022/09/19 00:01:33;;;;;;;17.88;3.17;;;12.90;99.90;;;;;;4716502;30;20049;-80
2022/09/19 00:04:04;;;;;;;21.15;2.60;;;12.90;99.90;;;;;;4716506;30;20068;-81
2022/09/19 00:06:32;;;;;;;14.65;2.08;;;12.90;99.90;;;;;;4716506;30;20382;-81
2022/09/19 00:08:58;;;;;;;32.05;3.47;;;13.00;99.90;;;;;;4716244;30;20057;-80
2022/09/19 00:11:25;;;;;;;21.55;3.88;;;13.00;99.90;;;;;;4716632;30;20049;-80
2022/09/19 00:13:53;;;;;;;10.77;1.70;;;13.00;99.90;;;;;;4717512;30;20426;-82
2022/09/19 00:16:22;;;;;;;19.83;2.72;;;13.00;99.90;;;;;;4717623;30;20049;-80
2022/09/19 00:18:49;;;;;;;19.48;2.45;;;12.90;99.90;;;;;;4716383;30;20064;-83
2022/09/19 00:21:35;;;;;;;11.82;2.10;;;12.90;99.90;;;;;;4716344;30;20068;-81
2022/09/19 00:26:46;;;;;;;17.52;2.42;;;13.00;99.90;;;;;;4730936;30;20512;-81
2022/09/19 00:29:14;;;;;;;20.90;3.67;;;12.90;99.90;;;;;;4716255;30;20057;-81
2022/09/19 00:31:43;;;;;;;22.02;2.63;;;12.90;99.90;;;;;;4717581;30;20057;-80
2022/09/19 00:34:09;;;;;;;20.50;3.05;;;12.90;99.90;;;;;;4716387;30;20402;-81
2022/09/19 00:36:36;;;;;;;17.67;2.20;;;13.00;99.90;;;;;;4716239;30;20049;-82
2022/09/19 00:39:05;;;;;;;17.65;2.30;;;13.00;99.90;;;;;;4719096;30;20141;-82
2022/09/19 00:41:31;;;;;;;17.60;3.50;;;12.90;99.90;;;;;;4720537;30;20053;-81
2022/09/19 00:43:59;;;;;;;16.80;2.38;;;12.90;99.90;;;;;;4720602;30;20051;-81
2022/09/19 00:46:28;;;;;;;22.15;3.00;;;13.00;99.90;;;;;;4720337;30;20425;-81
2022/09/19 00:48:59;;;;;;;20.02;3.58;;;13.00;99.90;;;;;;4720504;30;20076;-81
2022/09/19 00:52:00;;;;;;;14.23;2.13;;;13.00;99.90;;;;;;4720509;30;20089;-82
2022/09/19 00:54:36;;;;;;;23.38;3.30;;;13.00;99.90;;;;;;4719330;30;20197;-80
2022/09/19 00:57:04;;;;;;;13.95;2.00;;;13.10;99.90;;;;;;4719119;30;20056;-80
2022/09/19 00:59:34;;;;;;;19.95;3.20;;;13.20;99.90;;;;;;4720322;30;20045;-80
2022/09/19 01:02:04;;;;;;;12.13;2.15;;;13.20;99.90;;;;;;4720343;30;20525;-81
2022/09/19 01:04:35;;;;;;;16.13;2.45;;;13.20;99.90;;;;;;4720213;30;20132;-81
2022/09/19 01:07:51;;;;;;;9.05;1.05;;;13.10;99.90;;;;;;4719097;30;20476;-81
2022/09/19 01:10:28;;;;;;;10.55;1.95;;;13.10;99.90;;;;;;4716208;30;20123;-81
2022/09/19 01:13:38;;;;;;;19.55;2.58;;;13.00;99.90;;;;;;4720050;30;20092;-80
2022/09/19 01:16:20;;;;;;;26.63;4.43;;;13.10;99.90;;;;;;4719175;30;20062;-80
2022/09/19 01:19:02;;;;;;;16.48;2.28;;;13.00;99.90;;;;;;4720097;30;20048;-80
2022/09/19 01:21:38;;;;;;;19.30;2.40;;;13.00;99.90;;;;;;4719598;30;20578;-81
2022/09/19 01:24:19;;;;;;;13.73;2.60;;;13.00;99.90;;;;;;4718801;30;20061;-79
2022/09/19 01:27:09;;;;;;;10.25;1.60;;;13.00;99.90;;;;;;4718693;30;20053;-82
2022/09/19 01:29:48;;;;;;;13.35;1.27;;;13.10;99.90;;;;;;4718665;30;20053;-80
2022/09/19 01:32:21;;;;;;;15.75;3.40;;;13.10;99.90;;;;;;4719854;30;20120;-83
2022/09/19 01:34:51;;;;;;;18.92;2.45;;;13.10;99.90;;;;;;4718814;30;20057;-81
2022/09/19 01:37:21;;;;;;;11.25;2.00;;;13.10;99.90;;;;;;4719792;30;20129;-81
2022/09/19 01:39:49;;;;;;;10.50;1.75;;;13.10;99.90;;;;;;4719631;30;20210;-81
2022/09/19 01:42:18;;;;;;;10.25;1.05;;;13.10;99.90;;;;;;4719658;30;20088;-81
2022/09/19 01:44:44;;;;;;;4.93;0.55;;;13.10;99.90;;;;;;4719616;30;20041;-82
2022/09/19 01:47:39;;;;;;;10.85;0.95;;;13.00;99.90;;;;;;4719447;30;20413;-81
2022/09/19 01:50:08;;;;;;;12.32;1.58;;;13.00;99.90;;;;;;4716890;30;20061;-81
2022/09/19 01:53:05;;;;;;;11.32;1.48;;;13.00;99.90;;;;;;4717992;30;20057;-83
2022/09/19 01:56:01;;;;;;;10.25;1.83;;;13.00;99.90;;;;;;4708491;30;20056;-81
2022/09/19 01:58:42;;;;;;;19.02;2.60;;;13.00;99.90;;;;;;4719448;30;20195;-82
2022/09/19 02:01:16;;;;;;;20.05;3.13;;;13.00;99.90;;;;;;4718234;30;20053;-82
2022/09/19 02:03:48;;;;;;;9.55;1.75;;;13.10;99.90;;;;;;4718194;30;20632;-81
2022/09/19 02:06:31;;;;;;;20.77;2.00;;;13.10;99.90;;;;;;4719331;30;20072;-82
2022/09/19 02:09:03;;;;;;;16.27;1.92;;;13.20;99.90;;;;;;4718076;30;20111;-83
2022/09/19 02:11:30;;;;;;;19.63;3.00;;;13.20;99.90;;;;;;4719255;30;20045;-81
2022/09/19 02:14:16;;;;;;;19.98;2.72;;;13.20;99.90;;;;;;4718878;30;20116;-81
2022/09/19 02:17:03;;;;;;;17.88;2.58;;;13.20;99.90;;;;;;4717855;30;20110;-83
2022/09/19 02:20:09;;;;;;;15.93;2.53;;;13.30;99.90;;;;;;4719036;30;20052;-82
2022/09/19 02:22:44;;;;;;;18.80;3.13;;;13.30;99.90;;;;;;4717675;30;20119;-82
2022/09/19 02:25:20;;;;;;;14.95;3.30;;;13.30;99.90;;;;;;4718858;30;20506;-83
2022/09/19 02:27:59;;;;;;;15.02;2.20;;;13.30;99.90;;;;;;4717705;30;20060;-83
2022/09/19 02:30:25;;;;;;;14.95;2.17;;;13.30;99.90;;;;;;4717716;30;20065;-85
2022/09/19 02:32:51;;;;;;;14.23;1.75;;;13.40;99.90;;;;;;4718823;30;20136;-84
2022/09/19 02:35:24;;;;;;;13.95;1.55;;;13.40;99.90;;;;;;4718668;30;20528;-82
2022/09/19 02:37:59;;;;;;;11.02;1.25;;;13.40;99.90;;;;;;4717774;30;20049;-80
2022/09/19 02:40:36;;;;;;;13.15;2.33;;;13.40;99.90;;;;;;4718770;30;20580;-86
2022/09/19 02:43:06;;;;;;;18.67;2.17;;;13.50;99.90;;;;;;4718768;30;20045;-82
2022/09/19 02:45:39;;;;;;;16.27;2.78;;;13.50;99.90;;;;;;4718606;30;20128;-82
2022/09/19 02:48:08;;;;;;;11.40;2.00;;;13.50;99.90;;;;;;4718545;30;20044;-83
2022/09/19 02:50:47;;;;;;;15.27;3.70;;;13.50;99.90;;;;;;4717536;30;20532;-83
2022/09/19 02:53:22;;;;;;;12.25;1.80;;;13.40;99.90;;;;;;4718264;30;20440;-81
2022/09/19 02:55:55;;;;;;;15.88;3.15;;;13.50;99.90;;;;;;4718477;30;20135;-82
2022/09/19 02:58:22;;;;;;;20.42;3.58;;;13.50;99.90;;;;;;4717168;30;20055;-83
2022/09/19 03:00:52;;;;;;;16.23;3.20;;;13.50;99.90;;;;;;4717072;30;20091;-80
2022/09/19 03:06:35;;;;;;;17.30;2.60;;;13.30;99.90;;;;;;4718327;30;20091;-79
2022/09/19 03:09:03;;;;;;;17.48;2.33;;;13.30;99.90;;;;;;4718160;30;20057;-79
2022/09/19 03:11:32;;;;;;;17.48;2.40;;;13.30;99.90;;;;;;4717046;30;20053;-79
2022/09/19 03:13:59;;;;;;;12.10;1.95;;;13.30;99.90;;;;;;4716818;30;20505;-80
2022/09/19 03:16:34;;;;;;;18.67;3.50;;;13.30;99.90;;;;;;4718156;30;20049;-80
2022/09/19 03:19:01;;;;;;;13.98;1.98;;;13.30;99.90;;;;;;4718215;30;20064;-79
2022/09/19 03:21:27;;;;;;;18.20;3.28;;;13.30;99.90;;;;;;4717984;30;20049;-81
2022/09/19 03:23:58;;;;;;;18.38;2.53;;;13.40;99.90;;;;;;4718135;30;20140;-81
2022/09/19 03:26:30;;;;;;;12.63;2.42;;;13.40;99.90;;;;;;4718086;30;20045;-81
2022/09/19 03:28:57;;;;;;;24.58;3.30;;;13.40;99.90;;;;;;4718041;30;20049;-80
2022/09/19 03:31:23;;;;;;;16.10;4.13;;;13.30;99.90;;;;;;4718037;30;20056;-80
2022/09/19 03:33:51;;;;;;;22.00;2.78;;;13.30;99.90;;;;;;4716951;30;20061;-80
2022/09/19 03:36:18;;;;;;;15.73;2.25;;;13.20;99.90;;;;;;4716736;30;20108;-79
2022/09/19 03:38:44;;;;;;;16.55;2.42;;;13.20;99.90;;;;;;4716916;30;20063;-80
2022/09/19 03:41:14;;;;;;;12.27;2.13;;;13.20;99.90;;;;;;4716522;30;20060;-81
2022/09/19 03:43:43;;;;;;;16.85;2.50;;;13.10;99.90;;;;;;4716850;30;20057;-80
2022/09/19 03:46:14;;;;;;;13.95;2.15;;;13.10;99.90;;;;;;4717853;30;20056;-80
2022/09/19 03:48:44;;;;;;;13.57;3.03;;;13.10;99.90;;;;;;4716722;30;20048;-80
2022/09/19 03:51:10;;;;;;;15.20;2.45;;;13.10;99.90;;;;;;4717794;30;20064;-82
2022/09/19 03:53:36;;;;;;;13.23;2.42;;;13.10;99.90;;;;;;4717879;30;20053;-84
2022/09/19 03:56:03;;;;;;;16.40;2.38;;;13.20;99.90;;;;;;4717640;30;20494;-79
2022/09/19 03:58:30;;;;;;;17.83;2.17;;;13.20;99.90;;;;;;4717801;30;20136;-80
2022/09/19 04:00:57;;;;;;;19.42;2.80;;;13.20;99.90;;;;;;4716775;30;20542;-80
2022/09/19 04:03:23;;;;;;;20.27;2.40;;;13.20;99.90;;;;;;4717770;30;20132;-80
2022/09/19 04:05:51;;;;;;;19.20;1.95;;;13.20;99.90;;;;;;4717718;30;20078;-80
2022/09/19 04:08:16;;;;;;;20.67;2.55;;;13.20;99.90;;;;;;4717627;30;20050;-80
2022/09/19 04:10:42;;;;;;;20.23;2.33;;;13.10;99.90;;;;;;4717975;30;20053;-80
2022/09/19 04:13:09;;;;;;;16.92;2.30;;;13.10;99.90;;;;;;4718321;30;20056;-80
2022/09/19 04:15:35;;;;;;;17.73;2.38;;;13.20;99.90;;;;;;4721070;30;20085;-81
2022/09/19 04:18:03;;;;;;;18.55;2.17;;;13.30;99.90;;;;;;4720048;30;20057;-80
2022/09/19 04:20:30;;;;;;;12.45;2.40;;;13.30;99.90;;;;;;4719801;30;20056;-83
2022/09/19 04:23:00;;;;;;;10.65;1.58;;;13.40;99.90;;;;;;4719599;30;20594;-83
2022/09/19 04:25:35;;;;;;;17.42;2.28;;;13.40;99.90;;;;;;4719612;30;20068;-82
2022/09/19 04:28:06;;;;;;;23.20;2.80;;;13.40;99.90;;;;;;4719588;30;20486;-82
2022/09/19 04:30:37;;;;;;;16.92;2.45;;;13.40;99.90;;;;;;4720684;30;20083;-80
2022/09/19 04:33:04;;;;;;;11.55;1.65;;;13.40;99.90;;;;;;4719628;30;20057;-82
2022/09/19 04:35:35;;;;;;;15.80;1.95;;;13.50;99.90;;;;;;4719647;30;20105;-81
2022/09/19 04:38:08;;;;;;;12.00;1.52;;;13.50;99.90;;;;;;4719443;30;20053;-82
2022/09/19 04:40:39;;;;;;;21.50;2.55;;;13.40;99.90;;;;;;4719498;30;20409;-82
2022/09/19 04:43:05;;;;;;;15.18;1.80;;;13.50;99.90;;;;;;4719658;30;20061;-83
2022/09/19 04:45:31;;;;;;;10.45;1.65;;;13.50;99.90;;;;;;4719386;30;20387;-82
2022/09/19 04:47:58;;;;;;;14.30;2.22;;;13.50;99.90;;;;;;4720460;30;20128;-82
2022/09/19 04:50:27;;;;;;;10.15;1.60;;;13.50;99.90;;;;;;4719401;30;20453;-85
2022/09/19 04:52:53;;;;;;;11.77;1.63;;;13.50;99.90;;;;;;4720508;30;20045;-83
2022/09/19 04:55:18;;;;;;;18.85;2.63;;;13.50;99.90;;;;;;4720443;30;20061;-82
2022/09/19 04:57:44;;;;;;;18.35;2.10;;;13.50;99.90;;;;;;4719358;30;20136;-82
2022/09/19 05:00:11;;;;;;;13.75;2.38;;;13.40;99.90;;;;;;4720375;30;20081;-82
2022/09/19 05:02:36;;;;;;;14.00;1.90;;;13.40;99.90;;;;;;4720299;30;20057;-84
2022/09/19 05:05:04;;;;;;;10.23;1.40;;;13.40;99.90;;;;;;4720136;30;20049;-82
2022/09/19 05:07:33;;;;;;;15.75;1.75;;;13.30;99.90;;;;;;4720138;30;20136;-80
2022/09/19 05:10:02;;;;;;;18.25;3.00;;;13.30;99.90;;;;;;4720118;30;20065;-82
2022/09/19 05:12:28;;;;;;;11.05;1.70;;;13.20;99.90;;;;;;4720013;30;20413;-83
2022/09/19 05:14:55;;;;;;;15.25;1.85;;;13.30;99.90;;;;;;4718747;30;20061;-83
2022/09/19 05:17:21;;;;;;;11.15;1.60;;;13.30;99.90;;;;;;4719717;30;20561;-83
2022/09/19 05:19:47;;;;;;;15.75;1.95;;;13.30;99.90;;;;;;4719819;30;20053;-83
2022/09/19 05:22:12;;;;;;;11.38;1.98;;;13.40;99.90;;;;;;4717216;30;20057;-84
2022/09/19 05:24:38;;;;;;;12.63;2.55;;;13.40;99.90;;;;;;4717647;30;20060;-81
2022/09/19 05:27:04;;;;;;;10.82;1.27;;;13.50;99.90;;;;;;4719778;30;20139;-83
2022/09/19 05:29:36;;;;;;;10.50;1.95;;;13.50;99.90;;;;;;4719775;30;20049;-84
2022/09/19 05:32:03;;;;;;;13.38;2.00;;;13.50;99.90;;;;;;4719827;30;20056;-84
2022/09/19 05:34:28;;;;;;;16.42;2.40;;;13.40;99.90;;;;;;4719771;30;20061;-84
2022/09/19 05:36:54;;;;;;;14.10;2.10;;;13.50;99.90;;;;;;4718324;30;20075;-84
2022/09/19 05:39:19;;;;;;;16.65;2.60;;;13.50;99.90;;;;;;4719591;30;20064;-83
2022/09/19 05:41:45;;;;;;;17.77;2.85;;;13.50;99.90;;;;;;4719403;30;20104;-83
2022/09/19 05:44:13;;;;;;;15.93;2.60;;;13.50;99.90;;;;;;4719287;30;20045;-83
2022/09/19 05:46:39;;;;;;;15.82;3.28;;;13.40;99.90;;;;;;4719373;30;20137;-83
2022/09/19 05:49:05;;;;;;;18.17;3.58;;;13.40;99.90;;;;;;4718199;30;20144;-83
2022/09/19 05:51:31;;;;;;;12.65;2.30;;;13.50;99.90;;;;;;4718225;30;20081;-84
2022/09/19 05:53:56;;;;;;;19.60;2.28;;;13.40;99.90;;;;;;4719400;30;20084;-84
2022/09/19 05:56:23;;;;;;;14.52;2.95;;;13.40;99.90;;;;;;4719411;30;20189;-85
2022/09/19 05:58:52;;;;;;;10.48;2.05;;;13.40;99.90;;;;;;4719149;30;20064;-86
2022/09/19 06:01:18;;;;;;;15.38;2.33;;;13.30;99.90;;;;;;4719284;30;20155;-86
2022/09/19 06:03:44;;;;;;;9.90;1.70;;;13.30;99.90;;;;;;4719077;30;20537;-84
2022/09/19 06:06:13;;;;;;;17.40;3.35;;;13.30;99.90;;;;;;4718022;30;20153;-82
2022/09/19 06:08:41;;;;;;;21.23;3.40;;;13.10;99.90;;;;;;4719047;30;20053;-80
2022/09/19 06:11:08;;;;;;;36.30;4.07;;;13.10;99.90;;;;;;4719002;30;20060;-79
2022/09/19 06:16:18;;;;;;;17.85;2.30;;;13.00;99.90;;;;;;4717051;30;20227;-79
2022/09/19 06:18:45;;;;;;;28.88;3.95;;;12.80;99.90;;;;;;4709301;30;20128;-77
2022/09/19 06:21:10;;;;;;;22.65;3.22;;;12.80;99.90;;;;;;4700119;30;20509;-78
2022/09/19 06:23:36;;;;;;;16.67;2.80;;;12.80;99.90;;;;;;4701057;30;20062;-78
2022/09/19 06:26:01;;;;;;;17.80;2.97;;;12.80;99.90;;;;;;4699939;30;20568;-77
2022/09/19 06:28:27;;;;;;;25.00;2.88;;;12.90;99.90;;;;;;4701114;30;20093;-77
2022/09/19 06:30:53;;;;;;;15.20;3.10;;;12.90;99.90;;;;;;4701286;30;20084;-79
2022/09/19 06:33:19;;;;;;;11.82;2.25;;;13.00;99.90;;;;;;4701077;30;20155;-79
2022/09/19 06:35:44;;;;;;;10.07;1.65;;;13.10;99.90;;;;;;4700693;30;20445;-79
2022/09/19 06:38:11;;;;;;;9.90;1.52;;;13.10;99.90;;;;;;4701170;30;20056;-79
2022/09/19 06:40:38;;;;;;;11.68;1.52;;;13.00;99.90;;;;;;4714152;30;20053;-79
2022/09/19 06:43:06;;;;;;;11.77;1.38;;;13.10;99.90;;;;;;4700763;30;20133;-80
2022/09/19 06:45:37;;;;;;;13.10;2.58;;;13.10;99.90;;;;;;4699581;30;20061;-80
2022/09/19 06:48:05;;;;;;;10.95;1.98;;;13.10;99.90;;;;;;4700763;30;20092;-79
2022/09/19 06:50:31;;;;;;;17.67;2.00;;;13.10;99.90;;;;;;4700667;30;20061;-80
2022/09/19 06:52:57;;;;;;;15.35;2.53;;;13.20;99.90;;;;;;4700893;30;20046;-84
2022/09/19 06:55:24;;;;;;;16.52;3.47;;;13.20;99.90;;;;;;4713823;30;20057;-80
2022/09/19 06:57:58;;;;;;;21.83;2.55;;;13.10;99.90;;;;;;4700421;30;20410;-79
2022/09/19 07:00:26;;;;;;;14.85;1.95;;;13.20;99.90;;;;;;4700685;30;20061;-79
2022/09/19 07:02:57;;;;;;;10.65;1.88;;;13.20;99.90;;;;;;4700676;30;20096;-79
2022/09/19 07:05:23;;;;;;;17.67;2.13;;;13.20;99.90;;;;;;4700779;30;20053;-79
2022/09/19 07:08:15;;;;;;;;;;;;;;;;;;;;;
2022/09/19 07:12:01;;;;;;;;;;;;;;;;;;;;;
2022/09/19 07:21:04;;;;;;;14.43;1.95;;;13.40;99.90;;;;;;4734093;30;20072;-80
2022/09/19 07:23:30;;;;;;;17.38;2.08;;;13.30;99.90;;;;;;4735141;30;20433;-79
2022/09/19 07:25:56;;;;;;;13.10;1.60;;;13.40;99.90;;;;;;4734910;30;20044;-80
2022/09/19 07:28:22;;;;;;;18.45;2.45;;;13.40;99.90;;;;;;4735277;30;20055;-80
2022/09/19 07:30:48;;;;;;;21.80;2.10;;;13.40;99.90;;;;;;4733929;30;20070;-81
2022/09/19 07:33:23;;;;;;;13.57;2.40;;;13.40;99.90;;;;;;4727748;30;20057;-80
2022/09/19 07:35:51;;;;;;;13.88;2.67;;;13.50;99.90;;;;;;4716179;30;20157;-80
2022/09/19 07:38:19;;;;;;;14.82;1.60;;;13.60;99.90;;;;;;4717729;30;20060;-80
2022/09/19 07:40:45;;;;;;;19.05;2.30;;;13.60;99.90;;;;;;4717687;30;20064;-79
2022/09/19 07:43:16;;;;;;;17.52;2.70;;;13.60;99.90;;;;;;4717431;30;20476;-79
2022/09/19 07:45:50;;;;;;;16.00;1.92;;;13.70;99.90;;;;;;4734573;30;20487;-79
2022/09/19 07:48:18;;;;;;;14.15;3.00;;;13.80;99.90;;;;;;4739499;30;20405;-79
2022/09/19 07:50:44;;;;;;;10.82;1.45;;;13.90;99.90;;;;;;4737477;30;20066;-80
2022/09/19 07:53:13;;;;;;;9.88;1.40;;;14.00;99.90;;;;;;4737377;30;20052;-80
2022/09/19 07:55:41;;;;;;;12.40;1.73;;;14.00;99.90;;;;;;4737490;30;20060;-78
2022/09/19 07:58:10;;;;;;;15.15;1.50;;;14.00;99.90;;;;;;4737590;30;20087;-79
2022/09/19 08:00:37;;;;;;;13.07;1.95;;;14.20;99.90;;;;;;4737554;30;20401;-80
2022/09/19 08:03:05;;;;;;;7.75;1.63;;;14.30;99.90;;;;;;4737298;30;20084;-79
2022/09/19 08:05:34;;;;;;;12.45;1.60;;;14.40;99.90;;;;;;4739224;30;20122;-79
2022/09/19 08:08:01;;;;;;;4.22;1.08;;;14.40;99.90;;;;;;4737110;30;20052;-79
2022/09/19 08:10:27;;;;;;;10.02;1.70;;;14.50;99.90;;;;;;4737216;30;20074;-80
2022/09/19 08:12:52;;;;;;;12.63;1.63;;;14.60;99.90;;;;;;4737232;30;20506;-78
2022/09/19 08:15:19;;;;;;;10.32;1.30;;;14.70;99.90;;;;;;4736970;30;20048;-78
2022/09/19 08:17:58;;;;;;;12.25;1.88;;;14.80;99.90;;;;;;4737008;30;20052;-81
2022/09/19 08:20:32;;;;;;;16.08;1.83;;;15.00;99.90;;;;;;4736779;30;20417;-80
2022/09/19 08:23:01;;;;;;;20.80;2.40;;;15.10;99.90;;;;;;4738112;30;20095;-80
2022/09/19 08:25:30;;;;;;;11.52;1.58;;;15.20;99.90;;;;;;4737929;30;20521;-81
2022/09/19 08:27:56;;;;;;;14.13;3.00;;;15.20;99.90;;;;;;4737956;30;20052;-80
2022/09/19 08:30:23;;;;;;;14.82;2.63;;;15.10;99.90;;;;;;4737726;30;20053;-80
2022/09/19 08:32:49;;;;;;;17.60;2.45;;;15.10;99.90;;;;;;4737609;30;20052;-80
2022/09/19 08:35:16;;;;;;;14.43;1.98;;;15.00;99.90;;;;;;4736797;30;20048;-82
2022/09/19 08:37:46;;;;;;;17.95;1.80;;;15.10;99.90;;;;;;4736690;30;20068;-80
2022/09/19 08:40:25;;;;;;;9.40;1.90;;;15.20;99.90;;;;;;4735270;30;20494;-79
2022/09/19 08:43:09;;;;;;;12.13;1.70;;;15.10;99.90;;;;;;4735807;30;20125;-80
2022/09/19 08:46:09;;;;;;;10.77;1.88;;;15.10;99.90;;;;;;4735870;30;20056;-80
2022/09/19 08:49:03;;;;;;;16.98;2.15;;;14.80;99.90;;;;;;4735471;30;20056;-80
2022/09/19 08:51:33;;;;;;;10.32;1.48;;;14.60;99.90;;;;;;4736715;30;20049;-79
2022/09/19 08:54:09;;;;;;;9.95;1.85;;;14.60;99.90;;;;;;4736249;30;20106;-78
2022/09/19 08:56:38;;;;;;;13.15;1.75;;;14.50;99.90;;;;;;4737725;30;20048;-80
2022/09/19 08:59:13;;;;;;;13.23;1.73;;;14.60;99.90;;;;;;4736225;30;20123;-87
2022/09/19 09:01:39;;;;;;;19.08;2.45;;;14.60;99.90;;;;;;4735661;30;20061;-79
2022/09/19 09:04:15;;;;;;;9.73;1.42;;;14.70;99.90;;;;;;4737235;30;20055;-82
2022/09/19 09:07:06;;;;;;;13.95;2.00;;;14.70;99.90;;;;;;4737381;30;20135;-79
2022/09/19 09:09:45;;;;;;;10.98;2.25;;;14.90;99.90;;;;;;4736121;30;20110;-80
2022/09/19 09:12:31;;;;;;;12.25;2.45;;;15.10;99.90;;;;;;4737420;30;20104;-80
2022/09/19 09:15:09;;;;;;;13.77;1.60;;;15.20;99.90;;;;;;4736209;30;20056;-79
2022/09/19 09:17:43;;;;;;;13.65;1.65;;;15.40;99.90;;;;;;4737248;30;20048;-79
2022/09/19 09:20:28;;;;;;;13.95;2.00;;;15.50;99.90;;;;;;4736738;30;20064;-79
2022/09/19 09:23:05;;;;;;;19.63;2.05;;;15.50;99.90;;;;;;4736043;30;20107;-79
2022/09/19 09:25:35;;;;;;;19.35;2.95;;;15.50;99.90;;;;;;4737156;30;20049;-78
2022/09/19 09:28:32;;;;;;;19.33;2.67;;;15.30;99.90;;;;;;4736671;30;20129;-78
2022/09/19 09:31:25;;;;;;;16.88;2.40;;;15.20;99.90;;;;;;4736543;30;20052;-78
2022/09/19 09:34:13;;;;;;;10.18;1.58;;;15.00;99.90;;;;;;4736603;30;20425;-79
2022/09/19 09:36:49;;;;;;;9.77;1.58;;;14.90;99.90;;;;;;4732966;30;20138;-79
2022/09/19 09:46:32;;;;;;;14.55;1.58;;;14.70;99.90;;;;;;4742020;24;20523;-79
2022/09/19 09:48:58;;;;;;;13.52;1.75;;;14.80;99.90;;;;;;4735250;30;20060;-80
2022/09/19 09:51:49;;;;;;;11.60;2.78;;;15.00;99.90;;;;;;4736459;30;20052;-79
2022/09/19 09:57:50;;;;;;;14.32;3.05;;;15.20;99.90;;;;;;4736629;30;20060;-78
2022/09/19 10:03:35;;;;;;;12.88;2.33;;;15.20;99.90;;;;;;4736015;30;20540;-78
2022/09/19 10:06:32;;;;;;;14.88;2.28;;;15.30;99.90;;;;;;4736196;30;20057;-81
2022/09/19 10:09:06;;;;;;;14.02;2.25;;;15.40;99.90;;;;;;4735122;30;20515;-80
2022/09/19 10:11:56;;;;;;;11.68;2.20;;;15.50;99.90;;;;;;4735594;30;20049;-79
2022/09/19 10:14:28;;;;;;;14.65;2.20;;;15.60;99.90;;;;;;4735112;30;20405;-80
2022/09/19 10:17:00;;;;;;;11.98;2.20;;;15.60;99.90;;;;;;4735971;30;20256;-81
2022/09/19 10:19:39;;;;;;;12.60;1.85;;;15.60;99.90;;;;;;4736264;30;20404;-80
2022/09/19 10:22:15;;;;;;;15.45;2.17;;;15.60;99.90;;;;;;4734958;30;20625;-81
2022/09/19 10:24:51;;;;;;;18.45;2.92;;;15.70;99.90;;;;;;4735964;30;20067;-82
2022/09/19 10:27:26;;;;;;;13.93;1.83;;;15.60;99.90;;;;;;4734961;30;20057;-81
2022/09/19 10:29:57;;;;;;;9.00;2.17;;;15.60;99.90;;;;;;4734684;30;20573;-82
2022/09/19 10:32:26;;;;;;;11.55;1.75;;;15.80;99.90;;;;;;4735841;30;20497;-82
2022/09/19 10:34:52;;;;;;;7.68;1.15;;;15.90;99.90;;;;;;4734805;30;20408;-81
2022/09/19 10:37:28;;;;;;;8.88;1.60;;;16.00;99.90;;;;;;4735940;30;20075;-82
2022/09/19 10:40:02;;;;;;;13.35;1.90;;;16.00;99.90;;;;;;4734607;30;20055;-81
2022/09/19 10:42:37;;;;;;;13.25;1.73;;;16.00;99.90;;;;;;4735600;30;20421;-83
2022/09/19 10:45:25;;;;;;;14.57;1.83;;;15.90;99.90;;;;;;4734676;30;20067;-83
2022/09/19 10:48:09;;;;;;;14.23;1.50;;;16.10;99.90;;;;;;4735761;30;20094;-80
2022/09/19 10:50:49;;;;;;;10.63;1.80;;;16.20;99.90;;;;;;4734108;30;20060;-79
2022/09/19 10:53:28;;;;;;;11.82;1.80;;;16.40;99.90;;;;;;4735496;30;20434;-82
2022/09/19 10:56:02;;;;;;;9.82;1.42;;;16.50;99.90;;;;;;4734267;30;20425;-83
2022/09/19 10:58:35;;;;;;;11.15;1.50;;;16.60;99.90;;;;;;4734019;30;20143;-92
2022/09/19 11:01:03;;;;;;;12.60;1.92;;;16.70;99.90;;;;;;4735751;30;20056;-80
2022/09/19 11:03:31;;;;;;;12.90;1.20;;;16.80;99.90;;;;;;4734454;30;20045;-80
2022/09/19 11:06:13;;;;;;;7.72;1.45;;;16.90;99.90;;;;;;4734282;30;20060;-82
2022/09/19 11:08:45;;;;;;;12.70;1.63;;;17.00;99.90;;;;;;4734224;30;20052;-81
2022/09/19 11:11:45;;;;;;;14.93;2.38;;;17.10;99.90;;;;;;4735340;30;20072;-81
2022/09/19 11:14:15;;;;;;;17.45;1.83;;;17.20;99.90;;;;;;4733583;30;20139;-82
2022/09/19 11:17:00;;;;;;;10.27;2.53;;;17.30;99.90;;;;;;4731511;30;20103;-80
2022/09/19 11:19:39;;;;;;;10.07;1.55;;;17.40;99.90;;;;;;4717913;30;20115;-80
2022/09/19 11:22:31;;;;;;;14.20;2.28;;;17.50;99.90;;;;;;4716068;30;20053;-79
2022/09/19 11:25:06;;;;;;;16.50;1.65;;;17.50;99.90;;;;;;4716521;30;20131;-80
2022/09/19 11:27:48;;;;;;;9.07;1.33;;;17.60;99.90;;;;;;4734150;30;20056;-80
2022/09/19 11:30:18;;;;;;;9.95;1.42;;;17.70;99.90;;;;;;4734054;30;20068;-84
2022/09/19 11:32:55;;;;;;;7.82;1.77;;;17.80;99.90;;;;;;4735282;30;20078;-82
2022/09/19 11:35:28;;;;;;;7.97;1.40;;;17.80;99.90;;;;;;4733810;30;20045;-82
2022/09/19 11:38:12;;;;;;;10.00;1.55;;;17.90;99.90;;;;;;4733968;30;20061;-81
2022/09/19 11:41:19;;;;;;;15.20;1.92;;;18.00;99.90;;;;;;4748358;30;20065;-82
2022/09/19 11:44:18;;;;;;;8.63;1.50;;;18.00;99.90;;;;;;4734956;30;20052;-82
2022/09/19 11:46:55;;;;;;;8.32;1.33;;;18.00;99.90;;;;;;4737029;30;20069;-83
2022/09/19 11:52:06;;;;;;;9.73;1.35;;;17.80;99.90;;;;;;4738579;24;20135;-82
2022/09/19 11:54:34;;;;;;;11.70;1.40;;;18.10;99.90;;;;;;4734528;30;20128;-81
2022/09/19 11:57:10;;;;;;;8.57;1.75;;;18.20;99.90;;;;;;4734825;30;20053;-80
2022/09/19 12:00:14;;;;;;;8.48;1.45;;;18.20;99.90;;;;;;4734907;30;20068;-82
2022/09/19 12:03:17;;;;;;;8.65;0.85;;;18.30;99.90;;;;;;4726094;30;20069;-81
2022/09/19 12:06:18;;;;;;;8.70;1.42;;;18.50;99.90;;;;;;4734738;30;20143;-81
2022/09/19 12:09:06;;;;;;;11.57;1.92;;;18.30;99.90;;;;;;4734699;30;20096;-82
2022/09/19 12:11:39;;;;;;;10.75;2.38;;;18.30;99.90;;;;;;4733332;30;20493;-81
2022/09/19 12:14:16;;;;;;;9.30;1.70;;;18.10;99.90;;;;;;4733786;30;20052;-80
2022/09/19 12:16:46;;;;;;;13.65;1.75;;;17.80;99.90;;;;;;4734762;30;20110;-80
2022/09/19 12:19:24;;;;;;;8.77;1.58;;;17.70;99.90;;;;;;4734845;30;20060;-81
2022/09/19 12:22:01;;;;;;;10.80;2.17;;;17.70;99.90;;;;;;4733640;30;20083;-82
2022/09/19 12:24:53;;;;;;;11.02;1.98;;;17.90;99.90;;;;;;4734668;30;20061;-82
2022/09/19 12:27:31;;;;;;;14.05;2.10;;;17.90;99.90;;;;;;4734898;30;20044;-80
2022/09/19 12:30:19;;;;;;;10.70;2.15;;;17.90;99.90;;;;;;4734292;30;20057;-84
2022/09/19 12:33:06;;;;;;;9.85;1.42;;;18.00;99.90;;;;;;4734508;30;20098;-82
2022/09/19 12:35:53;;;;;;;10.40;1.80;;;18.10;99.90;;;;;;4735865;30;20056;-80
2022/09/19 12:38:53;;;;;;;13.02;2.17;;;18.10;99.90;;;;;;4737738;30;20494;-82
2022/09/19 12:41:39;;;;;;;12.52;1.58;;;18.10;99.90;;;;;;4737773;30;20150;-80
2022/09/19 12:44:25;;;;;;;8.25;1.52;;;18.20;99.90;;;;;;4734389;30;20044;-79
2022/09/19 12:47:04;;;;;;;10.13;1.50;;;18.20;99.90;;;;;;4737382;30;20063;-81
2022/09/19 12:49:57;;;;;;;4.40;1.00;;;18.20;99.90;;;;;;4737387;30;20565;-79
2022/09/19 12:52:34;;;;;;;6.95;0.75;;;18.20;99.90;;;;;;4737769;30;20049;-80
2022/09/19 12:55:07;;;;;;;10.10;1.48;;;18.10;99.90;;;;;;4736405;30;20388;-80
2022/09/19 12:57:40;;;;;;;12.50;1.80;;;18.10;99.90;;;;;;4736108;30;20520;-80
2022/09/19 13:00:07;;;;;;;8.65;1.70;;;18.10;99.90;;;;;;4737428;30;20087;-79
2022/09/19 13:02:43;;;;;;;9.88;1.75;;;18.20;99.90;;;;;;4736350;30;20487;-78
2022/09/19 13:05:36;;;;;;;9.32;1.30;;;18.30;99.90;;;;;;4736439;30;20481;-78
2022/09/19 13:08:42;;;;;;;10.98;2.22;;;18.40;99.90;;;;;;4736153;30;20064;-79
2022/09/19 13:11:26;;;;;;;9.57;1.80;;;18.40;99.90;;;;;;4727634;30;20064;-79
2022/09/19 13:14:13;;;;;;;9.68;1.67;;;18.20;99.90;;;;;;4736193;30;20606;-79
2022/09/19 13:23:30;;;;;;;11.40;1.83;;;17.90;99.90;;;;;;4735891;30;20409;-80
2022/09/19 13:57:04;;;;;;;;;;;17.80;99.90;;;;;;5209164;24;20055;-80
2022/09/19 13:59:46;;;;;;;5.75;0.90;;;18.00;99.90;;;;;;4735448;30;19970;-83
2022/09/19 14:02:27;;;;;;;9.05;1.55;;;17.80;99.90;;;;;;4736441;30;20048;-80
2022/09/19 14:45:42;;;;;;;7.95;1.25;;;17.40;99.90;;;;;;5612071;24;20058;-81
2022/09/19 15:01:05;;;;;;;;;;;;;;;;;;;;;
2022/09/19 15:24:30;;;;;;;13.18;3.00;;;16.20;99.90;;;;;;4547842;31;20068;-84
2022/09/19 15:26:59;;;;;;;8.40;2.35;;;16.20;99.90;;;;;;4517827;31;20148;-82
2022/09/19 15:33:03;;;;;;;6.18;1.65;;;16.20;99.90;;;;;;4515874;31;20054;-82
2022/09/19 15:35:30;;;;;;;9.30;2.20;;;16.30;99.90;;;;;;4556858;31;20069;-81
2022/09/19 15:38:37;;;;;;;8.95;2.00;;;16.10;99.90;;;;;;4567067;31;20069;-82
2022/09/19 15:41:06;;;;;;;10.57;1.77;;;16.10;99.90;;;;;;4578172;31;20079;-82
2022/09/19 15:43:53;;;;;;;;;;;;;;;;;;;;;
2022/09/19 15:46:48;;;;;;;9.30;1.53;;;16.10;99.90;;;;;;4663053;30;20503;-83